createdAt,value
2023-07-18T00:00:20.035Z,17.80
2023-07-18T00:02:48.777Z,17.70
2023-07-18T00:05:16.993Z,17.70
2023-07-18T00:07:45.565Z,17.80
2023-07-18T00:10:15.031Z,17.80
2023-07-18T00:12:43.212Z,17.70
2023-07-18T00:15:13.605Z,17.70
2023-07-18T00:17:42.706Z,17.60
2023-07-18T00:20:15.148Z,17.60
2023-07-18T00:22:44.318Z,17.60
2023-07-18T00:25:14.898Z,17.70
2023-07-18T00:27:43.493Z,17.70
2023-07-18T00:30:13.875Z,17.60
2023-07-18T00:32:43.589Z,17.60
2023-07-18T00:35:12.875Z,17.60
2023-07-18T00:37:41.207Z,17.60
2023-07-18T00:40:12.443Z,17.60
2023-07-18T00:42:42.980Z,17.60
2023-07-18T00:45:11.809Z,17.60
2023-07-18T00:47:43.819Z,17.50
2023-07-18T00:50:13.593Z,17.50
2023-07-18T00:52:45.977Z,17.50
2023-07-18T00:55:14.953Z,17.50
2023-07-18T00:57:46.450Z,17.40
2023-07-18T01:00:18.001Z,17.40
2023-07-18T01:02:47.622Z,17.40
2023-07-18T01:05:18.659Z,17.30
2023-07-18T01:07:47.884Z,17.30
2023-07-18T01:10:17.854Z,17.20
2023-07-18T01:12:48.767Z,17.30
2023-07-18T01:15:17.002Z,17.30
2023-07-18T01:17:46.873Z,17.30
2023-07-18T01:20:20.061Z,17.20
2023-07-18T01:22:52.052Z,17.20
2023-07-18T01:25:20.868Z,17.20
2023-07-18T01:27:50.197Z,17.20
2023-07-18T01:30:21.353Z,17.10
2023-07-18T01:32:50.481Z,17.20
2023-07-18T01:35:20.732Z,17.10
2023-07-18T01:37:50.694Z,17.10
2023-07-18T01:40:21.518Z,17.10
2023-07-18T01:42:51.563Z,17.00
2023-07-18T01:45:20.284Z,17.00
2023-07-18T01:47:49.814Z,17.00
2023-07-18T01:50:19.098Z,17.00
2023-07-18T01:52:48.187Z,17.00
2023-07-18T01:55:18.483Z,17.00
2023-07-18T01:57:48.630Z,17.00
2023-07-18T02:00:21.964Z,17.00
2023-07-18T02:02:52.611Z,16.90
2023-07-18T02:05:22.622Z,16.90
2023-07-18T02:07:51.436Z,16.90
2023-07-18T02:10:22.666Z,16.90
2023-07-18T02:12:51.711Z,16.90
2023-07-18T02:15:21.907Z,16.90
2023-07-18T02:17:50.452Z,16.90
2023-07-18T02:20:19.803Z,16.80
2023-07-18T02:22:49.526Z,16.70
2023-07-18T02:25:18.190Z,16.70
2023-07-18T02:27:47.886Z,16.80
2023-07-18T02:30:16.406Z,16.80
2023-07-18T02:32:45.242Z,16.80
2023-07-18T02:35:16.479Z,16.70
2023-07-18T02:37:44.879Z,16.80
2023-07-18T02:40:13.715Z,16.80
2023-07-18T02:42:41.804Z,16.80
2023-07-18T02:45:12.207Z,16.70
2023-07-18T02:47:40.639Z,16.70
2023-07-18T02:50:09.772Z,16.70
2023-07-18T02:52:38.308Z,16.70
2023-07-18T02:55:07.522Z,16.70
2023-07-18T02:57:36.814Z,16.70
2023-07-18T03:00:08.236Z,16.70
2023-07-18T03:02:38.512Z,16.60
2023-07-18T03:05:08.643Z,16.60
2023-07-18T03:07:36.728Z,16.60
2023-07-18T03:10:05.831Z,16.60
2023-07-18T03:12:34.043Z,16.50
2023-07-18T03:15:02.215Z,16.60
2023-07-18T03:17:30.365Z,16.60
2023-07-18T03:19:59.871Z,16.50
2023-07-18T03:22:30.958Z,16.50
2023-07-18T03:25:06.338Z,16.50
2023-07-18T03:27:34.493Z,16.60
2023-07-18T03:30:02.622Z,16.50
2023-07-18T03:32:31.329Z,16.50
2023-07-18T03:35:01.498Z,16.50
2023-07-18T03:37:30.018Z,16.50
2023-07-18T03:39:58.105Z,16.50
2023-07-18T03:42:26.102Z,16.40
2023-07-18T03:44:55.157Z,16.40
2023-07-18T03:47:23.215Z,16.40
2023-07-18T03:49:52.081Z,16.40
2023-07-18T03:52:21.686Z,16.40
2023-07-18T03:54:49.776Z,16.50
2023-07-18T03:57:18.034Z,16.40
2023-07-18T03:59:46.050Z,16.40
2023-07-18T04:02:15.952Z,16.40
2023-07-18T04:04:44.077Z,16.30
2023-07-18T04:07:12.548Z,16.30
2023-07-18T04:09:41.959Z,16.30
2023-07-18T04:12:10.518Z,16.30
2023-07-18T04:14:38.651Z,16.40
2023-07-18T04:17:06.758Z,16.40
2023-07-18T04:19:34.850Z,16.40
2023-07-18T04:22:03.294Z,16.30
2023-07-18T04:24:32.855Z,16.40
2023-07-18T04:27:02.283Z,16.40
2023-07-18T04:29:30.476Z,16.40
2023-07-18T04:31:58.627Z,16.40
2023-07-18T04:34:26.840Z,16.50
2023-07-18T04:36:54.915Z,16.50
2023-07-18T04:39:23.147Z,16.50
2023-07-18T04:41:55.753Z,16.50
2023-07-18T04:44:25.768Z,16.50
2023-07-18T04:46:54.703Z,16.50
2023-07-18T04:49:25.821Z,16.50
2023-07-18T04:51:54.533Z,16.60
2023-07-18T04:54:22.737Z,16.60
2023-07-18T04:56:54.350Z,16.60
2023-07-18T04:59:23.280Z,16.70
2023-07-18T05:01:55.554Z,16.70
2023-07-18T05:04:24.260Z,16.80
2023-07-18T05:06:52.469Z,16.80
2023-07-18T05:09:20.638Z,16.90
2023-07-18T05:11:49.061Z,16.90
2023-07-18T05:14:17.349Z,17.00
2023-07-18T05:16:45.591Z,17.00
2023-07-18T05:19:15.202Z,17.10
2023-07-18T05:21:43.282Z,17.10
2023-07-18T05:24:11.869Z,17.10
2023-07-18T05:26:39.936Z,17.20
2023-07-18T05:29:07.968Z,17.20
2023-07-18T05:31:36.251Z,17.20
2023-07-18T05:34:04.610Z,17.20
2023-07-18T05:36:36.022Z,17.30
2023-07-18T05:39:04.258Z,17.30
2023-07-18T05:41:32.558Z,17.40
2023-07-18T05:44:00.654Z,17.40
2023-07-18T05:46:29.022Z,17.40
2023-07-18T05:48:57.237Z,17.50
2023-07-18T05:51:25.423Z,17.50
2023-07-18T05:53:55.067Z,17.50
2023-07-18T05:56:23.248Z,17.60
2023-07-18T05:58:51.354Z,17.60
2023-07-18T06:01:19.790Z,17.60
2023-07-18T06:03:48.925Z,17.70
2023-07-18T06:06:17.099Z,17.70
2023-07-18T06:08:45.266Z,17.70
2023-07-18T06:11:14.754Z,17.70
2023-07-18T06:13:43.325Z,17.80
2023-07-18T06:16:11.446Z,17.80
2023-07-18T06:18:42.671Z,17.90
2023-07-18T06:21:10.887Z,17.90
2023-07-18T06:23:38.903Z,18.00
2023-07-18T06:26:07.526Z,18.00
2023-07-18T06:28:36.911Z,18.00
2023-07-18T06:31:05.149Z,18.10
2023-07-18T06:33:33.747Z,18.20
2023-07-18T06:36:01.884Z,18.20
2023-07-18T06:38:29.990Z,18.20
2023-07-18T06:40:58.107Z,18.20
2023-07-18T06:43:26.546Z,18.30
2023-07-18T06:45:56.028Z,18.30
2023-07-18T06:48:24.231Z,18.40
2023-07-18T06:50:54.066Z,18.40
2023-07-18T06:53:23.117Z,18.40
2023-07-18T06:55:52.092Z,18.40
2023-07-18T06:58:20.921Z,18.40
2023-07-18T07:00:50.653Z,18.50
2023-07-18T07:03:20.693Z,18.60
2023-07-18T07:05:48.997Z,18.60
2023-07-18T07:08:22.284Z,18.70
2023-07-18T07:10:50.399Z,18.70
2023-07-18T07:13:18.639Z,18.70
2023-07-18T07:15:46.768Z,18.80
2023-07-18T07:18:14.907Z,18.80
2023-07-18T07:20:45.112Z,18.70
2023-07-18T07:23:13.282Z,18.70
2023-07-18T07:25:41.435Z,18.70
2023-07-18T07:28:10.281Z,18.70
2023-07-18T07:30:38.627Z,18.80
2023-07-18T07:33:07.676Z,18.90
2023-07-18T07:35:35.945Z,18.90
2023-07-18T07:38:05.441Z,19.00
2023-07-18T07:40:33.662Z,19.00
2023-07-18T07:43:02.073Z,19.10
2023-07-18T07:45:30.200Z,19.00
2023-07-18T07:47:58.369Z,18.90
2023-07-18T07:50:26.737Z,18.90
2023-07-18T07:52:54.864Z,18.90
2023-07-18T07:55:24.547Z,19.00
2023-07-18T07:57:52.732Z,19.10
2023-07-18T08:00:21.850Z,19.10
2023-07-18T08:02:49.964Z,19.20
2023-07-18T08:05:18.256Z,19.30
2023-07-18T08:07:46.403Z,19.20
2023-07-18T08:10:14.462Z,19.20
2023-07-18T08:12:43.977Z,19.30
2023-07-18T08:15:12.294Z,19.50
2023-07-18T08:17:40.440Z,19.60
2023-07-18T08:20:11.514Z,19.70
2023-07-18T08:22:39.851Z,19.70
2023-07-18T08:25:08.280Z,19.80
2023-07-18T08:27:36.740Z,19.90
2023-07-18T08:30:07.536Z,19.80
2023-07-18T08:32:35.773Z,19.70
2023-07-18T08:35:03.907Z,19.70
2023-07-18T08:37:32.037Z,19.70
2023-07-18T08:40:00.496Z,19.80
2023-07-18T08:42:29.571Z,19.80
2023-07-18T08:44:59.903Z,19.80
2023-07-18T08:47:29.801Z,19.90
2023-07-18T08:49:57.889Z,19.90
2023-07-18T08:52:26.120Z,20.00
2023-07-18T08:54:54.208Z,20.00
2023-07-18T08:57:22.658Z,20.10
2023-07-18T08:59:51.575Z,20.20
2023-07-18T09:02:19.645Z,20.30
2023-07-18T09:04:49.461Z,20.50
2023-07-18T09:07:20.989Z,20.60
2023-07-18T09:09:49.125Z,20.60
2023-07-18T09:12:17.259Z,20.70
2023-07-18T09:14:45.362Z,20.80
2023-07-18T09:17:13.498Z,20.80
2023-07-18T09:19:43.273Z,20.90
2023-07-18T09:22:14.106Z,20.90
2023-07-18T09:24:44.745Z,20.90
2023-07-18T09:27:18.160Z,20.90
2023-07-18T09:29:47.065Z,21.10
2023-07-18T09:32:19.520Z,21.10
2023-07-18T09:34:54.784Z,21.30
2023-07-18T09:37:24.693Z,21.30
2023-07-18T09:39:53.344Z,21.20
2023-07-18T09:42:23.805Z,21.00
2023-07-18T09:44:54.050Z,21.10
2023-07-18T09:47:23.107Z,21.00
2023-07-18T09:49:52.565Z,21.10
2023-07-18T09:52:29.079Z,21.20
2023-07-18T09:54:58.934Z,21.40
2023-07-18T09:57:28.029Z,21.50
2023-07-18T09:59:58.284Z,21.40
2023-07-18T10:02:26.539Z,21.50
2023-07-18T10:04:55.166Z,21.60
2023-07-18T10:07:24.068Z,21.60
2023-07-18T10:09:53.787Z,21.80
2023-07-18T10:12:21.999Z,21.90
2023-07-18T10:14:58.218Z,22.10
2023-07-18T10:17:45.338Z,22.20
2023-07-18T10:20:14.930Z,22.30
2023-07-18T10:22:49.972Z,21.90
2023-07-18T10:25:21.769Z,21.80
2023-07-18T10:27:52.241Z,21.70
2023-07-18T10:30:21.726Z,21.80
2023-07-18T10:32:54.570Z,22.00
2023-07-18T10:35:25.964Z,22.20
2023-07-18T10:37:56.310Z,22.40
2023-07-18T10:40:38.582Z,22.30
2023-07-18T10:43:08.264Z,22.20
2023-07-18T10:45:40.171Z,22.20
2023-07-18T10:48:13.012Z,22.30
2023-07-18T10:50:41.482Z,22.50
2023-07-18T10:53:13.076Z,22.80
2023-07-18T10:55:42.584Z,23.00
2023-07-18T10:58:18.128Z,23.10
2023-07-18T11:00:47.012Z,23.20
2023-07-18T11:03:22.334Z,23.40
2023-07-18T11:05:51.315Z,23.30
2023-07-18T11:08:26.942Z,23.40
2023-07-18T11:10:58.523Z,22.90
2023-07-18T11:13:31.402Z,22.60
2023-07-18T11:16:00.877Z,22.50
2023-07-18T11:18:33.420Z,22.70
2023-07-18T11:21:03.829Z,22.70
2023-07-18T11:23:32.552Z,22.80
2023-07-18T11:26:09.205Z,22.80
2023-07-18T11:28:38.351Z,22.80
2023-07-18T11:31:06.578Z,22.80
2023-07-18T11:33:35.780Z,22.60
2023-07-18T11:36:10.608Z,22.40
2023-07-18T11:38:41.612Z,22.20
2023-07-18T11:41:17.070Z,22.40
2023-07-18T11:43:49.150Z,22.60
2023-07-18T11:46:17.259Z,22.50
2023-07-18T11:48:49.884Z,22.40
2023-07-18T11:51:18.239Z,22.30
2023-07-18T11:53:47.911Z,22.20
2023-07-18T11:56:17.367Z,22.30
2023-07-18T11:58:45.442Z,22.30
2023-07-18T12:01:13.813Z,22.30
2023-07-18T12:03:42.188Z,22.20
2023-07-18T12:06:10.443Z,22.30
2023-07-18T12:08:38.620Z,22.20
2023-07-18T12:11:10.397Z,22.30
2023-07-18T12:13:40.607Z,22.50
2023-07-18T12:16:08.936Z,22.60
2023-07-18T12:18:37.358Z,22.60
2023-07-18T12:21:05.676Z,22.60
2023-07-18T12:23:33.809Z,22.70
2023-07-18T12:26:01.899Z,22.90
2023-07-18T12:28:29.946Z,22.60
2023-07-18T12:30:59.541Z,22.60
2023-07-18T12:33:27.997Z,22.50
2023-07-18T12:35:56.488Z,22.60
2023-07-18T12:38:27.604Z,22.40
2023-07-18T12:40:57.220Z,22.40
2023-07-18T12:43:25.346Z,22.50
2023-07-18T12:45:57.020Z,22.80
2023-07-18T12:48:26.631Z,23.00
2023-07-18T12:50:55.212Z,22.80
2023-07-18T12:53:23.759Z,22.50
2023-07-18T12:55:51.851Z,22.50
2023-07-18T12:58:19.942Z,22.60
2023-07-18T13:00:48.639Z,22.70
2023-07-18T13:03:16.885Z,22.60
2023-07-18T13:05:46.399Z,22.80
2023-07-18T13:08:14.491Z,23.00
2023-07-18T13:10:42.631Z,22.90
2023-07-18T13:13:10.748Z,22.80
2023-07-18T13:15:38.882Z,22.90
2023-07-18T13:18:07.182Z,23.00
2023-07-18T13:20:35.541Z,23.20
2023-07-18T13:23:05.125Z,23.20
2023-07-18T13:25:33.425Z,23.10
2023-07-18T13:28:01.605Z,23.00
2023-07-18T13:30:30.384Z,23.00
2023-07-18T13:32:58.633Z,22.70
2023-07-18T13:35:26.827Z,22.60
2023-07-18T13:37:56.061Z,22.60
2023-07-18T13:40:25.654Z,22.80
2023-07-18T13:42:53.753Z,22.90
2023-07-18T13:45:22.203Z,23.00
2023-07-18T13:47:50.535Z,22.90
2023-07-18T13:52:58.709Z,23.10
2023-07-18T13:55:28.267Z,23.10
2023-07-18T13:57:56.437Z,23.00
2023-07-18T14:00:25.265Z,22.80
2023-07-18T14:02:53.436Z,22.80
2023-07-18T14:05:21.833Z,23.00
2023-07-18T14:07:50.049Z,23.10
2023-07-18T14:10:18.505Z,23.30
2023-07-18T14:12:48.508Z,23.30
2023-07-18T14:15:16.616Z,23.40
2023-07-18T14:17:44.839Z,23.60
2023-07-18T14:20:14.096Z,23.80
2023-07-18T14:22:43.909Z,23.80
2023-07-18T14:25:13.012Z,24.00
2023-07-18T14:27:41.251Z,24.00
2023-07-18T14:30:11.573Z,24.00
2023-07-18T14:32:40.544Z,23.80
2023-07-18T14:35:09.671Z,23.70
2023-07-18T14:37:38.997Z,23.80
2023-07-18T14:40:09.496Z,24.10
2023-07-18T14:42:37.963Z,24.10
2023-07-18T14:45:07.185Z,24.30
2023-07-18T14:47:36.683Z,25.00
2023-07-18T14:50:05.063Z,25.90
2023-07-18T14:52:33.233Z,26.80
2023-07-18T14:55:01.678Z,27.50
2023-07-18T14:57:29.884Z,27.40
2023-07-18T14:59:58.230Z,27.90
2023-07-18T15:02:26.565Z,29.10
2023-07-18T15:04:56.081Z,29.80
2023-07-18T15:07:24.295Z,31.00
2023-07-18T15:09:52.811Z,31.30
2023-07-18T15:12:21.569Z,31.40
2023-07-18T15:14:50.198Z,31.80
2023-07-18T15:17:18.347Z,31.50
2023-07-18T15:19:50.573Z,31.50
2023-07-18T15:22:20.319Z,31.90
2023-07-18T15:24:48.584Z,31.90
2023-07-18T15:27:16.898Z,31.90
2023-07-18T15:29:46.940Z,31.90
2023-07-18T15:32:15.026Z,32.60
2023-07-18T15:34:43.111Z,33.10
2023-07-18T15:37:11.245Z,32.10
2023-07-18T15:39:40.705Z,31.00
2023-07-18T15:42:09.029Z,31.50
2023-07-18T15:44:37.266Z,32.50
2023-07-18T15:47:05.952Z,32.60
2023-07-18T15:49:34.142Z,32.40
2023-07-18T15:52:02.361Z,32.30
2023-07-18T15:54:31.089Z,32.80
2023-07-18T15:57:00.624Z,33.30
2023-07-18T15:59:28.837Z,33.60
2023-07-18T16:01:57.400Z,34.90
2023-07-18T16:04:25.829Z,35.70
2023-07-18T16:06:54.156Z,37.10
2023-07-18T16:09:27.551Z,37.50
2023-07-18T16:11:55.914Z,37.70
2023-07-18T16:14:25.804Z,37.50
2023-07-18T16:16:55.441Z,36.20
2023-07-18T16:19:23.666Z,35.20
2023-07-18T16:21:55.057Z,35.80
2023-07-18T16:24:23.084Z,36.80
2023-07-18T16:26:51.612Z,37.30
2023-07-18T16:29:19.696Z,38.50
2023-07-18T16:31:49.129Z,39.50
2023-07-18T16:34:17.522Z,40.10
2023-07-18T16:36:45.691Z,39.70
2023-07-18T16:39:13.944Z,37.70
2023-07-18T16:41:42.348Z,37.30
2023-07-18T16:44:10.865Z,37.60
2023-07-18T16:46:39.053Z,38.40
2023-07-18T16:49:08.603Z,38.60
2023-07-18T16:51:36.759Z,39.40
2023-07-18T16:54:04.919Z,38.90
2023-07-18T16:56:35.018Z,37.90
2023-07-18T16:59:04.720Z,37.30
2023-07-18T17:01:33.080Z,37.20
2023-07-18T17:04:02.134Z,37.90
2023-07-18T17:06:31.767Z,38.30
2023-07-18T17:09:00.149Z,36.70
2023-07-18T17:11:28.375Z,35.30
2023-07-18T17:13:56.520Z,35.80
2023-07-18T17:16:24.808Z,36.40
2023-07-18T17:18:52.943Z,36.80
2023-07-18T17:21:21.154Z,36.90
2023-07-18T17:23:50.865Z,36.90
2023-07-18T17:26:19.173Z,37.00
2023-07-18T17:28:47.729Z,36.80
2023-07-18T17:31:15.900Z,36.30
2023-07-18T17:33:44.396Z,34.20
2023-07-18T17:36:13.012Z,33.40
2023-07-18T17:38:41.137Z,33.30
2023-07-18T17:41:10.589Z,33.20
2023-07-18T17:43:38.679Z,33.00
2023-07-18T17:46:06.925Z,32.80
2023-07-18T17:48:35.001Z,32.70
2023-07-18T17:51:04.136Z,32.40
2023-07-18T17:53:32.677Z,32.20
2023-07-18T17:56:01.950Z,32.20
2023-07-18T17:58:31.469Z,32.30
2023-07-18T18:00:59.490Z,32.50
2023-07-18T18:03:27.865Z,32.80
2023-07-18T18:05:56.136Z,32.90
2023-07-18T18:08:24.232Z,32.80
2023-07-18T18:10:53.055Z,32.60
2023-07-18T18:13:21.355Z,32.50
2023-07-18T18:16:06.388Z,32.30
2023-07-18T18:18:36.904Z,32.00
2023-07-18T18:21:05.445Z,31.70
2023-07-18T18:23:39.907Z,31.50
2023-07-18T18:26:10.075Z,31.30
2023-07-18T18:28:38.378Z,30.90
2023-07-18T18:31:08.098Z,30.50
2023-07-18T18:33:36.347Z,30.20
2023-07-18T18:36:04.680Z,30.00
2023-07-18T18:38:32.781Z,29.90
2023-07-18T18:41:01.247Z,29.70
2023-07-18T18:43:29.655Z,29.70
2023-07-18T18:45:57.855Z,29.60
2023-07-18T18:48:27.803Z,29.60
2023-07-18T18:50:56.054Z,29.50
2023-07-18T18:53:24.247Z,29.30
2023-07-18T18:55:53.084Z,29.10
2023-07-18T18:58:21.167Z,28.90
2023-07-18T19:00:49.292Z,28.70
2023-07-18T19:03:18.024Z,28.50
2023-07-18T19:05:48.639Z,28.40
2023-07-18T19:08:17.037Z,28.30
2023-07-18T19:10:56.300Z,28.20
2023-07-18T19:13:29.997Z,28.10
2023-07-18T19:15:58.288Z,28.00
2023-07-18T19:18:26.588Z,27.80
2023-07-18T19:20:56.014Z,27.70
2023-07-18T19:23:24.543Z,27.60
2023-07-18T19:25:54.051Z,27.50
2023-07-18T19:28:22.478Z,27.30
2023-07-18T19:30:50.640Z,27.20
2023-07-18T19:33:18.782Z,27.10
2023-07-18T19:35:46.898Z,27.00
2023-07-18T19:38:16.393Z,26.90
2023-07-18T19:40:44.449Z,26.80
2023-07-18T19:43:13.240Z,26.70
2023-07-18T19:45:41.468Z,26.60
2023-07-18T19:48:09.648Z,26.60
2023-07-18T19:50:41.444Z,26.50
2023-07-18T19:53:09.540Z,26.40
2023-07-18T19:55:39.163Z,26.30
2023-07-18T19:58:07.194Z,26.20
2023-07-18T20:00:35.351Z,26.00
2023-07-18T20:03:03.635Z,25.90
2023-07-18T20:05:33.539Z,25.80
2023-07-18T20:08:02.504Z,25.80
2023-07-18T20:10:30.689Z,25.70
2023-07-18T20:13:00.205Z,25.70
2023-07-18T20:15:29.615Z,25.70
2023-07-18T20:17:57.739Z,25.60
2023-07-18T20:20:25.857Z,25.50
2023-07-18T20:22:54.023Z,25.40
2023-07-18T20:25:22.320Z,25.40
2023-07-18T20:27:50.505Z,25.30
2023-07-18T20:30:21.189Z,25.30
2023-07-18T20:32:50.108Z,25.20
2023-07-18T20:35:18.608Z,25.20
2023-07-18T20:37:50.884Z,25.10
2023-07-18T20:40:18.988Z,25.10
2023-07-18T20:42:47.138Z,25.00
2023-07-18T20:45:15.763Z,25.00
2023-07-18T20:47:45.801Z,24.90
2023-07-18T20:50:14.047Z,24.90
2023-07-18T20:52:42.567Z,24.80
2023-07-18T20:55:10.962Z,24.70
2023-07-18T20:57:39.236Z,24.70
2023-07-18T21:00:09.130Z,24.60
2023-07-18T21:02:37.307Z,24.50
2023-07-18T21:05:07.479Z,24.50
2023-07-18T21:07:35.738Z,24.40
2023-07-18T21:10:04.221Z,24.40
2023-07-18T21:12:32.443Z,24.30
2023-07-18T21:15:00.658Z,24.20
2023-07-18T21:17:28.881Z,24.10
2023-07-18T21:19:57.073Z,24.10
2023-07-18T21:22:26.614Z,24.00
2023-07-18T21:24:54.807Z,24.00
2023-07-18T21:27:22.924Z,23.90
2023-07-18T21:29:51.177Z,23.90
2023-07-18T21:32:19.307Z,23.80
2023-07-18T21:34:47.334Z,23.80
2023-07-18T21:37:15.663Z,23.70
2023-07-18T21:39:45.308Z,23.70
2023-07-18T21:42:13.473Z,23.70
2023-07-18T21:44:41.635Z,23.70
2023-07-18T21:47:09.842Z,23.60
2023-07-18T21:49:37.873Z,23.60
2023-07-18T21:52:06.649Z,23.50
2023-07-18T21:54:34.810Z,23.40
2023-07-18T21:57:04.825Z,23.40
2023-07-18T21:59:32.965Z,23.40
2023-07-18T22:02:01.177Z,23.30
2023-07-18T22:04:29.384Z,23.30
2023-07-18T22:06:57.482Z,23.30
2023-07-18T22:09:25.684Z,23.30
2023-07-18T22:11:53.740Z,23.20
2023-07-18T22:14:23.828Z,23.10
2023-07-18T22:16:52.446Z,23.10
2023-07-18T22:19:20.647Z,23.00
2023-07-18T22:21:48.932Z,22.90
2023-07-18T22:24:17.247Z,22.80
2023-07-18T22:26:45.311Z,22.80
2023-07-18T22:29:13.516Z,22.80
2023-07-18T22:31:43.472Z,22.80
2023-07-18T22:34:11.667Z,22.80
2023-07-18T22:36:39.904Z,22.80
2023-07-18T22:39:08.527Z,22.70
2023-07-18T22:41:39.964Z,22.70
2023-07-18T22:44:08.014Z,22.70
2023-07-18T22:46:36.486Z,22.60
2023-07-18T22:49:06.024Z,22.60
2023-07-18T22:51:34.136Z,22.60
2023-07-18T22:54:02.193Z,22.60
2023-07-18T22:56:30.502Z,22.50
2023-07-18T22:58:58.620Z,22.50
2023-07-18T23:01:26.668Z,22.50
2023-07-18T23:03:54.859Z,22.50
2023-07-18T23:06:24.284Z,22.40
2023-07-18T23:08:52.369Z,22.30
2023-07-18T23:11:20.689Z,22.30
2023-07-18T23:13:49.056Z,22.30
2023-07-18T23:16:17.309Z,22.20
2023-07-18T23:18:45.417Z,22.20
2023-07-18T23:21:13.559Z,22.10
2023-07-18T23:23:43.016Z,22.10
2023-07-18T23:26:11.271Z,22.10
2023-07-18T23:28:39.461Z,22.00
2023-07-18T23:31:07.657Z,22.00
2023-07-18T23:33:36.030Z,22.00
2023-07-18T23:36:04.292Z,21.90
2023-07-18T23:41:44.985Z,21.90
2023-07-18T23:44:13.141Z,21.90
2023-07-18T23:46:41.409Z,21.90
2023-07-18T23:49:09.726Z,21.90
2023-07-18T23:51:37.819Z,21.90
2023-07-18T23:54:05.929Z,21.80
2023-07-18T23:56:34.218Z,21.70
2023-07-18T23:59:03.712Z,21.60
